PWSweather.com
Personal Weather Stations
Station Observations
KCOBLACK1
Chalet Park, Black Hawk, CO 80422

Chalet ParkBlack Hawk, CO 80422

Lat: 39.8294, Lon: -105.48

Elevation: 9370

Station Type: Vantage Pro2

http://www.oscaranddeb.com/weather

High Low Average
Temperature 49.4°F9.7°F 37.0°F2.8°F 42.4°F5.8°F
Dew Point 34.9°F1.6°F 25.7°F-3.5°F 30.5°F-0.8°F
Winds 18.0 mph SW29.0 mph SW Calm Calm 5.4 mph 8.7 mph
Wind Gusts 32.0 mph51.5 mph -- 11.1 mph17.9 mph
Humidity 81% 43% 63%
Pressure 30.02 in1016.60 in 29.73 in1006.80 in -
Precipitation 0.00 in0.00 in - -
Hour Temp Dew Point Humidity Winds Wind Gusts Pressure Precip Precip Rate Daily Precip Total
12:00 AM 40.1°F4.5°C 33.4°F0.8°C 77% 3.0 mph SW4.8 kmh SW 5.0 mph8.0 kmh 29.73 in1006.8 mb 0.00 in0.0 mm 0.00 in/hr0.0 mm/hr 0.05 in1.3 mm
12:05 AM 40.4°F4.7°C 33.4°F0.8°C 76% 7.0 mph SW11.3 kmh SW 7.0 mph11.3 kmh 29.73 in1006.8 mb 0.00 in0.0 mm 0.00 in/hr0.0 mm/hr 0.00 in0.0 mm
12:10 AM 41.0°F5.0°C 33.3°F0.7°C 74% 8.0 mph SW12.9 kmh SW 9.0 mph14.5 kmh 29.73 in1006.8 mb 0.00 in0.0 mm 0.00 in/hr0.0 mm/hr 0.00 in0.0 mm
12:15 AM 41.4°F5.2°C 33.4°F0.8°C 73% 3.0 mph SW4.8 kmh SW 8.0 mph12.9 kmh 29.73 in1006.8 mb 0.00 in0.0 mm 0.00 in/hr0.0 mm/hr 0.00 in0.0 mm
12:20 AM 41.3°F5.2°C 33.3°F0.7°C 73% 4.0 mph SW6.4 kmh SW 5.0 mph8.0 kmh 29.74 in1007.1 mb 0.00 in0.0 mm 0.00 in/hr0.0 mm/hr 0.00 in0.0 mm
12:25 AM 41.1°F5.1°C 33.4°F0.8°C 74% 4.0 mph SW6.4 kmh SW 7.0 mph11.3 kmh 29.74 in1007.1 mb 0.00 in0.0 mm 0.00 in/hr0.0 mm/hr 0.00 in0.0 mm
12:30 AM 40.9°F4.9°C 33.2°F0.7°C 74% 8.0 mph SW12.9 kmh SW 9.0 mph14.5 kmh 29.73 in1006.8 mb 0.00 in0.0 mm 0.00 in/hr0.0 mm/hr 0.00 in0.0 mm
12:35 AM 41.3°F5.2°C 33.3°F0.7°C 73% 8.0 mph SW12.9 kmh SW 12.0 mph19.3 kmh 29.73 in1006.8 mb 0.00 in0.0 mm 0.00 in/hr0.0 mm/hr 0.00 in0.0 mm
12:40 AM 41.8°F5.4°C 32.7°F0.4°C 70% 5.0 mph SW8.0 kmh SW 12.0 mph19.3 kmh 29.73 in1006.8 mb 0.00 in0.0 mm 0.00 in/hr0.0 mm/hr 0.00 in0.0 mm
12:45 AM 42.0°F5.6°C 32.5°F0.3°C 69% 6.0 mph SSW9.7 kmh SSW 11.0 mph17.7 kmh 29.73 in1006.8 mb 0.00 in0.0 mm 0.00 in/hr0.0 mm/hr 0.00 in0.0 mm
12:50 AM 42.3°F5.7°C 32.5°F0.3°C 68% 6.0 mph SW9.7 kmh SW 12.0 mph19.3 kmh 29.73 in1006.8 mb 0.00 in0.0 mm 0.00 in/hr0.0 mm/hr 0.00 in0.0 mm
12:55 AM 42.1°F5.6°C 32.3°F0.2°C 68% 9.0 mph WSW14.5 kmh WSW 12.0 mph19.3 kmh 29.74 in1007.1 mb 0.00 in0.0 mm 0.00 in/hr0.0 mm/hr 0.00 in0.0 mm
01:00 AM 42.0°F5.6°C 32.2°F0.1°C 68% 9.0 mph WSW14.5 kmh WSW 11.0 mph17.7 kmh 29.74 in1007.1 mb 0.00 in0.0 mm 0.00 in/hr0.0 mm/hr 0.00 in0.0 mm
01:05 AM 41.6°F5.3°C 32.5°F0.3°C 70% 7.0 mph WSW11.3 kmh WSW 9.0 mph14.5 kmh 29.74 in1007.1 mb 0.00 in0.0 mm 0.00 in/hr0.0 mm/hr 0.00 in0.0 mm
01:10 AM 41.4°F5.2°C 32.3°F0.2°C 70% 3.0 mph WSW4.8 kmh WSW 9.0 mph14.5 kmh 29.74 in1007.1 mb 0.00 in0.0 mm 0.00 in/hr0.0 mm/hr 0.00 in0.0 mm
01:15 AM 41.5°F5.3°C 32.1°F0.1°C 69% 5.0 mph SSW8.0 kmh SSW 11.0 mph17.7 kmh 29.74 in1007.1 mb 0.00 in0.0 mm 0.00 in/hr0.0 mm/hr 0.00 in0.0 mm
01:20 AM 41.5°F5.3°C 31.7°F-0.2°C 68% 3.0 mph WNW4.8 kmh WNW 11.0 mph17.7 kmh 29.75 in1007.5 mb 0.00 in0.0 mm 0.00 in/hr0.0 mm/hr 0.00 in0.0 mm
01:25 AM 41.5°F5.3°C 31.7°F-0.2°C 68% 10.0 mph SW16.1 kmh SW 14.0 mph22.5 kmh 29.74 in1007.1 mb 0.00 in0.0 mm 0.00 in/hr0.0 mm/hr 0.00 in0.0 mm
01:30 AM 42.0°F5.6°C 31.4°F-0.3°C 66% 6.0 mph WSW9.7 kmh WSW 15.0 mph24.1 kmh 29.75 in1007.5 mb 0.00 in0.0 mm 0.00 in/hr0.0 mm/hr 0.00 in0.0 mm
01:35 AM 42.0°F5.6°C 31.4°F-0.3°C 66% 9.0 mph WSW14.5 kmh WSW 13.0 mph20.9 kmh 29.75 in1007.5 mb 0.00 in0.0 mm 0.00 in/hr0.0 mm/hr 0.00 in0.0 mm
01:40 AM 42.0°F5.6°C 31.4°F-0.3°C 66% 1.0 mph WNW1.6 kmh WNW 12.0 mph19.3 kmh 29.76 in1007.8 mb 0.00 in0.0 mm 0.00 in/hr0.0 mm/hr 0.00 in0.0 mm
01:45 AM 41.6°F5.3°C 31.8°F-0.1°C 68% 2.0 mph WSW3.2 kmh WSW 10.0 mph16.1 kmh 29.75 in1007.5 mb 0.00 in0.0 mm 0.00 in/hr0.0 mm/hr 0.00 in0.0 mm
01:50 AM 41.0°F5.0°C 32.3°F0.2°C 71% 6.0 mph W9.7 kmh W 9.0 mph14.5 kmh 29.76 in1007.8 mb 0.00 in0.0 mm 0.00 in/hr0.0 mm/hr 0.00 in0.0 mm
01:55 AM 40.5°F4.7°C 32.5°F0.3°C 73% 6.0 mph NNW9.7 kmh NNW 8.0 mph12.9 kmh 29.76 in1007.8 mb 0.00 in0.0 mm 0.00 in/hr0.0 mm/hr 0.00 in0.0 mm
02:00 AM 40.1°F4.5°C 32.4°F0.2°C 74% 1.0 mph WSW1.6 kmh WSW 6.0 mph9.7 kmh 29.76 in1007.8 mb 0.00 in0.0 mm 0.00 in/hr0.0 mm/hr 0.00 in0.0 mm
02:05 AM 39.8°F4.3°C 32.5°F0.3°C 75% 3.0 mph NW4.8 kmh NW 6.0 mph9.7 kmh 29.76 in1007.8 mb 0.00 in0.0 mm 0.00 in/hr0.0 mm/hr 0.00 in0.0 mm
02:10 AM 39.6°F4.2°C 32.6°F0.3°C 76% 3.0 mph WNW4.8 kmh WNW 10.0 mph16.1 kmh 29.76 in1007.8 mb 0.00 in0.0 mm 0.00 in/hr0.0 mm/hr 0.00 in0.0 mm
02:15 AM 39.3°F4.1°C 32.7°F0.4°C 77% 5.0 mph NNW8.0 kmh NNW 11.0 mph17.7 kmh 29.76 in1007.8 mb 0.00 in0.0 mm 0.00 in/hr0.0 mm/hr 0.00 in0.0 mm
02:20 AM 39.1°F3.9°C 32.8°F0.4°C 78% 3.0 mph W4.8 kmh W 13.0 mph20.9 kmh 29.76 in1007.8 mb 0.00 in0.0 mm 0.00 in/hr0.0 mm/hr 0.00 in0.0 mm
02:25 AM 38.8°F3.8°C 32.8°F0.4°C 79% 5.0 mph NW8.0 kmh NW 10.0 mph16.1 kmh 29.76 in1007.8 mb 0.00 in0.0 mm 0.00 in/hr0.0 mm/hr 0.00 in0.0 mm
02:30 AM 38.6°F3.7°C 32.6°F0.3°C 79% 3.0 mph W4.8 kmh W 11.0 mph17.7 kmh 29.77 in1008.1 mb 0.00 in0.0 mm 0.00 in/hr0.0 mm/hr 0.00 in0.0 mm
02:35 AM 38.6°F3.7°C 32.9°F0.5°C 80% 2.0 mph W3.2 kmh W 11.0 mph17.7 kmh 29.76 in1007.8 mb 0.00 in0.0 mm 0.00 in/hr0.0 mm/hr 0.00 in0.0 mm
02:40 AM 38.5°F3.6°C 32.8°F0.4°C 80% 1.0 mph WNW1.6 kmh WNW 9.0 mph14.5 kmh 29.76 in1007.8 mb 0.00 in0.0 mm 0.00 in/hr0.0 mm/hr 0.00 in0.0 mm
02:45 AM 38.4°F3.6°C 32.7°F0.4°C 80% 1.0 mph W1.6 kmh W 10.0 mph16.1 kmh 29.76 in1007.8 mb 0.00 in0.0 mm 0.00 in/hr0.0 mm/hr 0.00 in0.0 mm
02:50 AM 38.4°F3.6°C 32.7°F0.4°C 80% 3.0 mph WSW4.8 kmh WSW 7.0 mph11.3 kmh 29.76 in1007.8 mb 0.00 in0.0 mm 0.00 in/hr0.0 mm/hr 0.00 in0.0 mm
02:55 AM 38.3°F3.5°C 32.6°F0.3°C 80% 4.0 mph W6.4 kmh W 7.0 mph11.3 kmh 29.76 in1007.8 mb 0.00 in0.0 mm 0.00 in/hr0.0 mm/hr 0.00 in0.0 mm
03:00 AM 38.6°F3.7°C 32.6°F0.3°C 79% 7.0 mph WSW11.3 kmh WSW 10.0 mph16.1 kmh 29.77 in1008.1 mb 0.00 in0.0 mm 0.00 in/hr0.0 mm/hr 0.00 in0.0 mm
03:05 AM 38.7°F3.7°C 32.4°F0.2°C 78% 7.0 mph W11.3 kmh W 13.0 mph20.9 kmh 29.77 in1008.1 mb 0.00 in0.0 mm 0.00 in/hr0.0 mm/hr 0.00 in0.0 mm
03:10 AM 38.7°F3.7°C 32.7°F0.4°C 79% 15.0 mph NW24.1 kmh NW 16.0 mph25.7 kmh 29.77 in1008.1 mb 0.00 in0.0 mm 0.00 in/hr0.0 mm/hr 0.00 in0.0 mm
03:15 AM 38.3°F3.5°C 32.9°F0.5°C 81% 10.0 mph W16.1 kmh W 18.0 mph29.0 kmh 29.77 in1008.1 mb 0.00 in0.0 mm 0.00 in/hr0.0 mm/hr 0.00 in0.0 mm
03:20 AM 38.0°F3.3°C 32.6°F0.3°C 81% 8.0 mph NW12.9 kmh NW 18.0 mph29.0 kmh 29.78 in1008.5 mb 0.00 in0.0 mm 0.00 in/hr0.0 mm/hr 0.00 in0.0 mm
03:25 AM 37.9°F3.3°C 32.5°F0.3°C 81% 3.0 mph NW4.8 kmh NW 15.0 mph24.1 kmh 29.78 in1008.5 mb 0.00 in0.0 mm 0.00 in/hr0.0 mm/hr 0.00 in0.0 mm
03:30 AM 37.9°F3.3°C 32.2°F0.1°C 80% 1.0 mph S1.6 kmh S 12.0 mph19.3 kmh 29.78 in1008.5 mb 0.00 in0.0 mm 0.00 in/hr0.0 mm/hr 0.00 in0.0 mm
03:35 AM 37.8°F3.2°C 32.1°F0.1°C 80% 2.0 mph WSW3.2 kmh WSW 9.0 mph14.5 kmh 29.78 in1008.5 mb 0.00 in0.0 mm 0.00 in/hr0.0 mm/hr 0.00 in0.0 mm
03:40 AM 37.5°F3.1°C 31.9°F-0.1°C 80% Calm Calm 8.0 mph12.9 kmh 29.78 in1008.5 mb 0.00 in0.0 mm 0.00 in/hr0.0 mm/hr 0.00 in0.0 mm
03:45 AM 37.4°F3.0°C 31.8°F-0.1°C 80% 2.0 mph SW3.2 kmh SW 3.0 mph4.8 kmh 29.78 in1008.5 mb 0.00 in0.0 mm 0.00 in/hr0.0 mm/hr 0.00 in0.0 mm
03:50 AM 37.3°F2.9°C 31.7°F-0.2°C 80% 3.0 mph NW4.8 kmh NW 4.0 mph6.4 kmh 29.78 in1008.5 mb 0.00 in0.0 mm 0.00 in/hr0.0 mm/hr 0.00 in0.0 mm
03:55 AM 37.3°F2.9°C 31.7°F-0.2°C 80% 1.0 mph W1.6 kmh W 10.0 mph16.1 kmh 29.78 in1008.5 mb 0.00 in0.0 mm 0.00 in/hr0.0 mm/hr 0.00 in0.0 mm
04:00 AM 37.1°F2.8°C 31.5°F-0.3°C 80% 1.0 mph WSW1.6 kmh WSW 10.0 mph16.1 kmh 29.78 in1008.5 mb 0.00 in0.0 mm 0.00 in/hr0.0 mm/hr 0.00 in0.0 mm
04:05 AM 37.0°F2.8°C 31.4°F-0.3°C 80% 8.0 mph W12.9 kmh W 12.0 mph19.3 kmh 29.78 in1008.5 mb 0.00 in0.0 mm 0.00 in/hr0.0 mm/hr 0.00 in0.0 mm
04:10 AM 37.1°F2.8°C 31.2°F-0.4°C 79% 4.0 mph WSW6.4 kmh WSW 15.0 mph24.1 kmh 29.78 in1008.5 mb 0.00 in0.0 mm 0.00 in/hr0.0 mm/hr 0.00 in0.0 mm
04:15 AM 37.2°F2.9°C 31.2°F-0.4°C 79% 3.0 mph WSW4.8 kmh WSW 24.0 mph38.6 kmh 29.78 in1008.5 mb 0.00 in0.0 mm 0.00 in/hr0.0 mm/hr 0.00 in0.0 mm
04:20 AM 37.4°F3.0°C 31.4°F-0.3°C 79% 14.0 mph WSW22.5 kmh WSW 24.0 mph38.6 kmh 29.78 in1008.5 mb 0.00 in0.0 mm 0.00 in/hr0.0 mm/hr 0.00 in0.0 mm
04:25 AM 37.4°F3.0°C 31.4°F-0.3°C 79% 12.0 mph WSW19.3 kmh WSW 28.0 mph45.1 kmh 29.77 in1008.1 mb 0.00 in0.0 mm 0.00 in/hr0.0 mm/hr 0.00 in0.0 mm
04:30 AM 37.4°F3.0°C 31.4°F-0.3°C 79% 13.0 mph W20.9 kmh W 32.0 mph51.5 kmh 29.78 in1008.5 mb 0.00 in0.0 mm 0.00 in/hr0.0 mm/hr 0.00 in0.0 mm
04:35 AM 37.5°F3.1°C 31.2°F-0.4°C 78% 14.0 mph SW22.5 kmh SW 31.0 mph49.9 kmh 29.79 in1008.8 mb 0.00 in0.0 mm 0.00 in/hr0.0 mm/hr 0.00 in0.0 mm
04:40 AM 37.7°F3.2°C 31.1°F-0.5°C 77% 18.0 mph SW29.0 kmh SW 24.0 mph38.6 kmh 29.79 in1008.8 mb 0.00 in0.0 mm 0.00 in/hr0.0 mm/hr 0.00 in0.0 mm
04:45 AM 37.7°F3.2°C 31.1°F-0.5°C 77% 11.0 mph WSW17.7 kmh WSW 22.0 mph35.4 kmh 29.80 in1009.1 mb 0.00 in0.0 mm 0.00 in/hr0.0 mm/hr 0.00 in0.0 mm
04:50 AM 37.6°F3.1°C 31.0°F-0.6°C 77% 6.0 mph WSW9.7 kmh WSW 16.0 mph25.7 kmh 29.80 in1009.1 mb 0.00 in0.0 mm 0.00 in/hr0.0 mm/hr 0.00 in0.0 mm
04:55 AM 37.7°F3.2°C 30.8°F-0.7°C 76% 8.0 mph SW12.9 kmh SW 21.0 mph33.8 kmh 29.80 in1009.1 mb 0.00 in0.0 mm 0.00 in/hr0.0 mm/hr 0.00 in0.0 mm
05:00 AM 38.0°F3.3°C 31.1°F-0.5°C 76% 10.0 mph SSW16.1 kmh SSW 18.0 mph29.0 kmh 29.80 in1009.1 mb 0.00 in0.0 mm 0.00 in/hr0.0 mm/hr 0.00 in0.0 mm
05:05 AM 38.0°F3.3°C 31.1°F-0.5°C 76% 13.0 mph WSW20.9 kmh WSW 19.0 mph30.6 kmh 29.80 in1009.1 mb 0.00 in0.0 mm 0.00 in/hr0.0 mm/hr 0.00 in0.0 mm
05:10 AM 37.8°F3.2°C 30.9°F-0.6°C 76% 4.0 mph WSW6.4 kmh WSW 17.0 mph27.4 kmh 29.80 in1009.1 mb 0.00 in0.0 mm 0.00 in/hr0.0 mm/hr 0.00 in0.0 mm
05:15 AM 37.8°F3.2°C 30.9°F-0.6°C 76% 9.0 mph WSW14.5 kmh WSW 18.0 mph29.0 kmh 29.80 in1009.1 mb 0.00 in0.0 mm 0.00 in/hr0.0 mm/hr 0.00 in0.0 mm
05:20 AM 37.7°F3.2°C 31.1°F-0.5°C 77% 7.0 mph WSW11.3 kmh WSW 19.0 mph30.6 kmh 29.80 in1009.1 mb 0.00 in0.0 mm 0.00 in/hr0.0 mm/hr 0.00 in0.0 mm
05:25 AM 37.4°F3.0°C 30.8°F-0.7°C 77% 11.0 mph WSW17.7 kmh WSW 14.0 mph22.5 kmh 29.80 in1009.1 mb 0.00 in0.0 mm 0.00 in/hr0.0 mm/hr 0.00 in0.0 mm
05:30 AM 37.1°F2.8°C 30.8°F-0.7°C 78% 11.0 mph WSW17.7 kmh WSW 16.0 mph25.7 kmh 29.80 in1009.1 mb 0.00 in0.0 mm 0.00 in/hr0.0 mm/hr 0.00 in0.0 mm
05:35 AM 37.1°F2.8°C 30.8°F-0.7°C 78% 9.0 mph WSW14.5 kmh WSW 14.0 mph22.5 kmh 29.79 in1008.8 mb 0.00 in0.0 mm 0.00 in/hr0.0 mm/hr 0.00 in0.0 mm
05:40 AM 37.5°F3.1°C 30.9°F-0.6°C 77% 9.0 mph WSW14.5 kmh WSW 17.0 mph27.4 kmh 29.79 in1008.8 mb 0.00 in0.0 mm 0.00 in/hr0.0 mm/hr 0.00 in0.0 mm
05:45 AM 37.7°F3.2°C 30.8°F-0.7°C 76% 10.0 mph WSW16.1 kmh WSW 17.0 mph27.4 kmh 29.80 in1009.1 mb 0.00 in0.0 mm 0.00 in/hr0.0 mm/hr 0.00 in0.0 mm
05:50 AM 37.8°F3.2°C 30.9°F-0.6°C 76% 10.0 mph SW16.1 kmh SW 17.0 mph27.4 kmh 29.80 in1009.1 mb 0.00 in0.0 mm 0.00 in/hr0.0 mm/hr 0.00 in0.0 mm
05:55 AM 37.9°F3.3°C 30.6°F-0.8°C 75% 12.0 mph WSW19.3 kmh WSW 17.0 mph27.4 kmh 29.80 in1009.1 mb 0.00 in0.0 mm 0.00 in/hr0.0 mm/hr 0.00 in0.0 mm
06:00 AM 38.1°F3.4°C 30.8°F-0.7°C 75% 6.0 mph W9.7 kmh W 18.0 mph29.0 kmh 29.80 in1009.1 mb 0.00 in0.0 mm 0.00 in/hr0.0 mm/hr 0.00 in0.0 mm
06:05 AM 38.0°F3.3°C 30.7°F-0.7°C 75% 9.0 mph W14.5 kmh W 16.0 mph25.7 kmh 29.80 in1009.1 mb 0.00 in0.0 mm 0.00 in/hr0.0 mm/hr 0.00 in0.0 mm
06:10 AM 38.1°F3.4°C 30.8°F-0.7°C 75% 10.0 mph WSW16.1 kmh WSW 16.0 mph25.7 kmh 29.81 in1009.5 mb 0.00 in0.0 mm 0.00 in/hr0.0 mm/hr 0.00 in0.0 mm
06:15 AM 38.1°F3.4°C 30.8°F-0.7°C 75% 7.0 mph WSW11.3 kmh WSW 15.0 mph24.1 kmh 29.81 in1009.5 mb 0.00 in0.0 mm 0.00 in/hr0.0 mm/hr 0.00 in0.0 mm
06:20 AM 38.1°F3.4°C 30.5°F-0.8°C 74% 15.0 mph SW24.1 kmh SW 12.0 mph19.3 kmh 29.81 in1009.5 mb 0.00 in0.0 mm 0.00 in/hr0.0 mm/hr 0.00 in0.0 mm
06:25 AM 38.3°F3.5°C 30.4°F-0.9°C 73% 10.0 mph WSW16.1 kmh WSW 15.0 mph24.1 kmh 29.81 in1009.5 mb 0.00 in0.0 mm 0.00 in/hr0.0 mm/hr 0.00 in0.0 mm
06:30 AM 38.4°F3.6°C 30.1°F-1.1°C 72% 4.0 mph WSW6.4 kmh WSW 12.0 mph19.3 kmh 29.82 in1009.8 mb 0.00 in0.0 mm 0.00 in/hr0.0 mm/hr 0.00 in0.0 mm
06:35 AM 38.5°F3.6°C 30.2°F-1.0°C 72% 4.0 mph SW6.4 kmh SW 10.0 mph16.1 kmh 29.82 in1009.8 mb 0.00 in0.0 mm 0.00 in/hr0.0 mm/hr 0.00 in0.0 mm
06:40 AM 38.5°F3.6°C 29.9°F-1.2°C 71% 3.0 mph SW4.8 kmh SW 10.0 mph16.1 kmh 29.82 in1009.8 mb 0.00 in0.0 mm 0.00 in/hr0.0 mm/hr 0.00 in0.0 mm
06:45 AM 38.6°F3.7°C 30.0°F-1.1°C 71% 4.0 mph SW6.4 kmh SW 10.0 mph16.1 kmh 29.82 in1009.8 mb 0.00 in0.0 mm 0.00 in/hr0.0 mm/hr 0.00 in0.0 mm
06:50 AM 38.8°F3.8°C 29.8°F-1.2°C 70% 4.0 mph SW6.4 kmh SW 8.0 mph12.9 kmh 29.83 in1010.2 mb 0.00 in0.0 mm 0.00 in/hr0.0 mm/hr 0.00 in0.0 mm
06:55 AM 38.8°F3.8°C 29.8°F-1.2°C 70% 1.0 mph WSW1.6 kmh WSW 4.0 mph6.4 kmh 29.83 in1010.2 mb 0.00 in0.0 mm 0.00 in/hr0.0 mm/hr 0.00 in0.0 mm
07:00 AM 38.5°F3.6°C 29.9°F-1.2°C 71% Calm Calm 3.0 mph4.8 kmh 29.83 in1010.2 mb 0.00 in0.0 mm 0.00 in/hr0.0 mm/hr 0.00 in0.0 mm
07:05 AM 38.3°F3.5°C 29.7°F-1.3°C 71% 2.0 mph NW3.2 kmh NW 3.0 mph4.8 kmh 29.83 in1010.2 mb 0.00 in0.0 mm 0.00 in/hr0.0 mm/hr 0.00 in0.0 mm
07:10 AM 38.2°F3.4°C 29.2°F-1.6°C 70% Calm Calm 4.0 mph6.4 kmh 29.83 in1010.2 mb 0.00 in0.0 mm 0.00 in/hr0.0 mm/hr 0.00 in0.0 mm
07:15 AM 38.3°F3.5°C 29.3°F-1.5°C 70% Calm Calm 3.0 mph4.8 kmh 29.84 in1010.5 mb 0.00 in0.0 mm 0.00 in/hr0.0 mm/hr 0.00 in0.0 mm
07:20 AM 38.5°F3.6°C 29.2°F-1.6°C 69% 1.0 mph NNW1.6 kmh NNW 2.0 mph3.2 kmh 29.84 in1010.5 mb 0.00 in0.0 mm 0.00 in/hr0.0 mm/hr 0.00 in0.0 mm
07:25 AM 38.5°F3.6°C 29.2°F-1.6°C 69% Calm Calm 1.0 mph1.6 kmh 29.84 in1010.5 mb 0.00 in0.0 mm 0.00 in/hr0.0 mm/hr 0.00 in0.0 mm
07:30 AM 38.4°F3.6°C 29.1°F-1.6°C 69% Calm Calm -- 29.84 in1010.5 mb 0.00 in0.0 mm 0.00 in/hr0.0 mm/hr 0.00 in0.0 mm
07:35 AM 38.3°F3.5°C 29.0°F-1.7°C 69% Calm Calm -- 29.84 in1010.5 mb 0.00 in0.0 mm 0.00 in/hr0.0 mm/hr 0.00 in0.0 mm
07:40 AM 38.2°F3.4°C 29.2°F-1.6°C 70% Calm Calm 2.0 mph3.2 kmh 29.84 in1010.5 mb 0.00 in0.0 mm 0.00 in/hr0.0 mm/hr 0.00 in0.0 mm
07:45 AM 38.2°F3.4°C 29.2°F-1.6°C 70% Calm Calm 3.0 mph4.8 kmh 29.84 in1010.5 mb 0.00 in0.0 mm 0.00 in/hr0.0 mm/hr 0.00 in0.0 mm
07:50 AM 38.3°F3.5°C 29.0°F-1.7°C 69% Calm Calm -- 29.85 in1010.8 mb 0.00 in0.0 mm 0.00 in/hr0.0 mm/hr 0.00 in0.0 mm
07:55 AM 38.3°F3.5°C 29.3°F-1.5°C 70% Calm Calm 4.0 mph6.4 kmh 29.86 in1011.2 mb 0.00 in0.0 mm 0.00 in/hr0.0 mm/hr 0.00 in0.0 mm
08:00 AM 38.3°F3.5°C 29.3°F-1.5°C 70% 2.0 mph NE3.2 kmh NE 5.0 mph8.0 kmh 29.86 in1011.2 mb 0.00 in0.0 mm 0.00 in/hr0.0 mm/hr 0.00 in0.0 mm
08:05 AM 38.4°F3.6°C 29.1°F-1.6°C 69% Calm Calm 2.0 mph3.2 kmh 29.86 in1011.2 mb 0.00 in0.0 mm 0.00 in/hr0.0 mm/hr 0.00 in0.0 mm
08:10 AM 38.7°F3.7°C 29.0°F-1.7°C 68% Calm Calm -- 29.86 in1011.2 mb 0.00 in0.0 mm 0.00 in/hr0.0 mm/hr 0.00 in0.0 mm
08:15 AM 38.9°F3.8°C 29.2°F-1.6°C 68% Calm Calm -- 29.86 in1011.2 mb 0.00 in0.0 mm 0.00 in/hr0.0 mm/hr 0.00 in0.0 mm
08:20 AM 39.2°F4.0°C 29.1°F-1.6°C 67% Calm Calm -- 29.87 in1011.5 mb 0.00 in0.0 mm 0.00 in/hr0.0 mm/hr 0.00 in0.0 mm
08:25 AM 39.6°F4.2°C 29.5°F-1.4°C 67% Calm Calm 3.0 mph4.8 kmh 29.87 in1011.5 mb 0.00 in0.0 mm 0.00 in/hr0.0 mm/hr 0.00 in0.0 mm
08:30 AM 40.1°F4.5°C 29.6°F-1.3°C 66% 2.0 mph E3.2 kmh E 3.0 mph4.8 kmh 29.87 in1011.5 mb 0.00 in0.0 mm 0.00 in/hr0.0 mm/hr 0.00 in0.0 mm
08:35 AM 41.1°F5.1°C 29.8°F-1.2°C 64% Calm Calm 7.0 mph11.3 kmh 29.88 in1011.9 mb 0.00 in0.0 mm 0.00 in/hr0.0 mm/hr 0.00 in0.0 mm
08:40 AM 42.0°F5.6°C 29.9°F-1.2°C 62% 2.0 mph S3.2 kmh S 4.0 mph6.4 kmh 29.88 in1011.9 mb 0.00 in0.0 mm 0.00 in/hr0.0 mm/hr 0.00 in0.0 mm
08:45 AM 42.9°F6.1°C 29.9°F-1.2°C 60% Calm Calm 5.0 mph8.0 kmh 29.88 in1011.9 mb 0.00 in0.0 mm 0.00 in/hr0.0 mm/hr 0.00 in0.0 mm
08:50 AM 43.4°F6.3°C 29.6°F-1.3°C 58% 4.0 mph S6.4 kmh S 6.0 mph9.7 kmh 29.88 in1011.9 mb 0.00 in0.0 mm 0.00 in/hr0.0 mm/hr 0.00 in0.0 mm
08:55 AM 43.8°F6.6°C 31.6°F-0.2°C 62% 1.0 mph SE1.6 kmh SE 7.0 mph11.3 kmh 29.88 in1011.9 mb 0.00 in0.0 mm 0.00 in/hr0.0 mm/hr 0.00 in0.0 mm
09:00 AM 44.3°F6.8°C 32.1°F0.1°C 62% Calm Calm 1.0 mph1.6 kmh 29.88 in1011.9 mb 0.00 in0.0 mm 0.00 in/hr0.0 mm/hr 0.00 in0.0 mm
09:05 AM 44.9°F7.2°C 31.8°F-0.1°C 60% Calm Calm -- 29.89 in1012.2 mb 0.00 in0.0 mm 0.00 in/hr0.0 mm/hr 0.00 in0.0 mm
09:10 AM 45.1°F7.3°C 29.4°F-1.4°C 54% 6.0 mph S9.7 kmh S 6.0 mph9.7 kmh 29.89 in1012.2 mb 0.00 in0.0 mm 0.00 in/hr0.0 mm/hr 0.00 in0.0 mm
09:15 AM 44.5°F6.9°C 29.3°F-1.5°C 55% 6.0 mph SSW9.7 kmh SSW 8.0 mph12.9 kmh 29.89 in1012.2 mb 0.00 in0.0 mm 0.00 in/hr0.0 mm/hr 0.00 in0.0 mm
09:20 AM 44.0°F6.7°C 29.3°F-1.5°C 56% 3.0 mph SSW4.8 kmh SSW 5.0 mph8.0 kmh 29.88 in1011.9 mb 0.00 in0.0 mm 0.00 in/hr0.0 mm/hr 0.00 in0.0 mm
09:25 AM 43.9°F6.6°C 29.6°F-1.3°C 57% 3.0 mph SSW4.8 kmh SSW 6.0 mph9.7 kmh 29.88 in1011.9 mb 0.00 in0.0 mm 0.00 in/hr0.0 mm/hr 0.00 in0.0 mm
09:30 AM 43.7°F6.5°C 29.0°F-1.7°C 56% 6.0 mph SSW9.7 kmh SSW 11.0 mph17.7 kmh 29.88 in1011.9 mb 0.00 in0.0 mm 0.00 in/hr0.0 mm/hr 0.00 in0.0 mm
09:35 AM 43.8°F6.6°C 29.1°F-1.6°C 56% 3.0 mph SW4.8 kmh SW 9.0 mph14.5 kmh 29.88 in1011.9 mb 0.00 in0.0 mm 0.00 in/hr0.0 mm/hr 0.00 in0.0 mm
09:40 AM 44.0°F6.7°C 29.3°F-1.5°C 56% 7.0 mph SW11.3 kmh SW 9.0 mph14.5 kmh 29.88 in1011.9 mb 0.00 in0.0 mm 0.00 in/hr0.0 mm/hr 0.00 in0.0 mm
09:45 AM 43.9°F6.6°C 29.2°F-1.6°C 56% 4.0 mph W6.4 kmh W 13.0 mph20.9 kmh 29.88 in1011.9 mb 0.00 in0.0 mm 0.00 in/hr0.0 mm/hr 0.00 in0.0 mm
09:50 AM 43.9°F6.6°C 29.6°F-1.3°C 57% 3.0 mph SW4.8 kmh SW 6.0 mph9.7 kmh 29.89 in1012.2 mb 0.00 in0.0 mm 0.00 in/hr0.0 mm/hr 0.00 in0.0 mm
09:55 AM 43.8°F6.6°C 29.9°F-1.2°C 58% 2.0 mph SW3.2 kmh SW 5.0 mph8.0 kmh 29.89 in1012.2 mb 0.00 in0.0 mm 0.00 in/hr0.0 mm/hr 0.00 in0.0 mm
10:00 AM 43.9°F6.6°C 29.6°F-1.3°C 57% Calm Calm 3.0 mph4.8 kmh 29.89 in1012.2 mb 0.00 in0.0 mm 0.00 in/hr0.0 mm/hr 0.00 in0.0 mm
10:05 AM 44.3°F6.8°C 30.4°F-0.9°C 58% 1.0 mph WNW1.6 kmh WNW 6.0 mph9.7 kmh 29.89 in1012.2 mb 0.00 in0.0 mm 0.00 in/hr0.0 mm/hr 0.00 in0.0 mm
10:10 AM 44.6°F7.0°C 30.3°F-0.9°C 57% 1.0 mph WNW1.6 kmh WNW 4.0 mph6.4 kmh 29.89 in1012.2 mb 0.00 in0.0 mm 0.00 in/hr0.0 mm/hr 0.00 in0.0 mm
10:15 AM 44.7°F7.1°C 29.9°F-1.2°C 56% 5.0 mph N8.0 kmh N 5.0 mph8.0 kmh 29.89 in1012.2 mb 0.00 in0.0 mm 0.00 in/hr0.0 mm/hr 0.00 in0.0 mm
10:20 AM 44.7°F7.1°C 30.4°F-0.9°C 57% 3.0 mph W4.8 kmh W 5.0 mph8.0 kmh 29.90 in1012.5 mb 0.00 in0.0 mm 0.00 in/hr0.0 mm/hr 0.00 in0.0 mm
10:25 AM 44.7°F7.1°C 29.9°F-1.2°C 56% 3.0 mph NW4.8 kmh NW 6.0 mph9.7 kmh 29.90 in1012.5 mb 0.00 in0.0 mm 0.00 in/hr0.0 mm/hr 0.00 in0.0 mm
10:30 AM 44.7°F7.1°C 30.8°F-0.7°C 58% 4.0 mph NW6.4 kmh NW 10.0 mph16.1 kmh 29.90 in1012.5 mb 0.00 in0.0 mm 0.00 in/hr0.0 mm/hr 0.00 in0.0 mm
10:35 AM 44.7°F7.1°C 30.4°F-0.9°C 57% 11.0 mph SW17.7 kmh SW 15.0 mph24.1 kmh 29.90 in1012.5 mb 0.00 in0.0 mm 0.00 in/hr0.0 mm/hr 0.00 in0.0 mm
10:40 AM 44.7°F7.1°C 29.9°F-1.2°C 56% 2.0 mph NW3.2 kmh NW 12.0 mph19.3 kmh 29.91 in1012.9 mb 0.00 in0.0 mm 0.00 in/hr0.0 mm/hr 0.00 in0.0 mm
10:45 AM 44.6°F7.0°C 29.8°F-1.2°C 56% 2.0 mph W3.2 kmh W 9.0 mph14.5 kmh 29.91 in1012.9 mb 0.00 in0.0 mm 0.00 in/hr0.0 mm/hr 0.00 in0.0 mm
10:50 AM 44.8°F7.1°C 30.5°F-0.8°C 57% 8.0 mph W12.9 kmh W 12.0 mph19.3 kmh 29.91 in1012.9 mb 0.00 in0.0 mm 0.00 in/hr0.0 mm/hr 0.00 in0.0 mm
10:55 AM 45.0°F7.2°C 29.8°F-1.2°C 55% 2.0 mph W3.2 kmh W 10.0 mph16.1 kmh 29.91 in1012.9 mb 0.00 in0.0 mm 0.00 in/hr0.0 mm/hr 0.00 in0.0 mm
11:00 AM 45.0°F7.2°C 29.8°F-1.2°C 55% 3.0 mph WNW4.8 kmh WNW 10.0 mph16.1 kmh 29.91 in1012.9 mb 0.00 in0.0 mm 0.00 in/hr0.0 mm/hr 0.00 in0.0 mm
11:05 AM 45.0°F7.2°C 29.3°F-1.5°C 54% 10.0 mph W16.1 kmh W 17.0 mph27.4 kmh 29.91 in1012.9 mb 0.00 in0.0 mm 0.00 in/hr0.0 mm/hr 0.00 in0.0 mm
11:10 AM 45.0°F7.2°C 29.3°F-1.5°C 54% 6.0 mph SW9.7 kmh SW 9.0 mph14.5 kmh 29.91 in1012.9 mb 0.00 in0.0 mm 0.00 in/hr0.0 mm/hr 0.00 in0.0 mm
11:15 AM 45.0°F7.2°C 29.3°F-1.5°C 54% 4.0 mph SW6.4 kmh SW 10.0 mph16.1 kmh 29.91 in1012.9 mb 0.00 in0.0 mm 0.00 in/hr0.0 mm/hr 0.00 in0.0 mm
11:20 AM 45.0°F7.2°C 28.4°F-2.0°C 52% 6.0 mph W9.7 kmh W 9.0 mph14.5 kmh 29.91 in1012.9 mb 0.00 in0.0 mm 0.00 in/hr0.0 mm/hr 0.00 in0.0 mm
11:25 AM 45.2°F7.3°C 28.6°F-1.9°C 52% Calm Calm 6.0 mph9.7 kmh 29.91 in1012.9 mb 0.00 in0.0 mm 0.00 in/hr0.0 mm/hr 0.00 in0.0 mm
11:30 AM 45.5°F7.5°C 28.4°F-2.0°C 51% 4.0 mph NW6.4 kmh NW 11.0 mph17.7 kmh 29.92 in1013.2 mb 0.00 in0.0 mm 0.00 in/hr0.0 mm/hr 0.00 in0.0 mm
11:35 AM 45.7°F7.6°C 27.1°F-2.7°C 48% 5.0 mph WSW8.0 kmh WSW 11.0 mph17.7 kmh 29.91 in1012.9 mb 0.00 in0.0 mm 0.00 in/hr0.0 mm/hr 0.00 in0.0 mm
11:40 AM 45.8°F7.7°C 27.2°F-2.7°C 48% 4.0 mph WSW6.4 kmh WSW 13.0 mph20.9 kmh 29.91 in1012.9 mb 0.00 in0.0 mm 0.00 in/hr0.0 mm/hr 0.00 in0.0 mm
11:45 AM 45.7°F7.6°C 27.1°F-2.7°C 48% 10.0 mph NW16.1 kmh NW 12.0 mph19.3 kmh 29.92 in1013.2 mb 0.00 in0.0 mm 0.00 in/hr0.0 mm/hr 0.00 in0.0 mm
11:50 AM 45.7°F7.6°C 27.1°F-2.7°C 48% 5.0 mph WNW8.0 kmh WNW 14.0 mph22.5 kmh 29.92 in1013.2 mb 0.00 in0.0 mm 0.00 in/hr0.0 mm/hr 0.00 in0.0 mm
11:55 AM 45.7°F7.6°C 27.1°F-2.7°C 48% 4.0 mph W6.4 kmh W 11.0 mph17.7 kmh 29.92 in1013.2 mb 0.00 in0.0 mm 0.00 in/hr0.0 mm/hr 0.00 in0.0 mm
12:00 PM 45.8°F7.7°C 27.2°F-2.7°C 48% 7.0 mph WSW11.3 kmh WSW 14.0 mph22.5 kmh 29.92 in1013.2 mb 0.00 in0.0 mm 0.00 in/hr0.0 mm/hr 0.00 in0.0 mm
12:05 PM 45.9°F7.7°C 27.8°F-2.3°C 49% 2.0 mph W3.2 kmh W 12.0 mph19.3 kmh 29.92 in1013.2 mb 0.00 in0.0 mm 0.00 in/hr0.0 mm/hr 0.00 in0.0 mm
12:10 PM 45.9°F7.7°C 27.8°F-2.3°C 49% 4.0 mph W6.4 kmh W 13.0 mph20.9 kmh 29.92 in1013.2 mb 0.00 in0.0 mm 0.00 in/hr0.0 mm/hr 0.00 in0.0 mm
12:15 PM 45.9°F7.7°C 25.7°F-3.5°C 45% 2.0 mph WSW3.2 kmh WSW 16.0 mph25.7 kmh 29.92 in1013.2 mb 0.00 in0.0 mm 0.00 in/hr0.0 mm/hr 0.00 in0.0 mm
12:20 PM 45.8°F7.7°C 26.7°F-2.9°C 47% 9.0 mph SSW14.5 kmh SSW 14.0 mph22.5 kmh 29.92 in1013.2 mb 0.00 in0.0 mm 0.00 in/hr0.0 mm/hr 0.00 in0.0 mm
12:25 PM 45.9°F7.7°C 26.8°F-2.9°C 47% 6.0 mph WSW9.7 kmh WSW 13.0 mph20.9 kmh 29.92 in1013.2 mb 0.00 in0.0 mm 0.00 in/hr0.0 mm/hr 0.00 in0.0 mm
12:30 PM 46.0°F7.8°C 26.9°F-2.8°C 47% 7.0 mph NW11.3 kmh NW 14.0 mph22.5 kmh 29.92 in1013.2 mb 0.00 in0.0 mm 0.00 in/hr0.0 mm/hr 0.00 in0.0 mm
12:35 PM 46.3°F7.9°C 26.6°F-3.0°C 46% 9.0 mph WSW14.5 kmh WSW 13.0 mph20.9 kmh 29.92 in1013.2 mb 0.00 in0.0 mm 0.00 in/hr0.0 mm/hr 0.00 in0.0 mm
12:40 PM 47.2°F8.4°C 26.9°F-2.8°C 45% 5.0 mph SW8.0 kmh SW 14.0 mph22.5 kmh 29.92 in1013.2 mb 0.00 in0.0 mm 0.00 in/hr0.0 mm/hr 0.00 in0.0 mm
12:45 PM 47.6°F8.7°C 27.3°F-2.6°C 45% 4.0 mph W6.4 kmh W 12.0 mph19.3 kmh 29.91 in1012.9 mb 0.00 in0.0 mm 0.00 in/hr0.0 mm/hr 0.00 in0.0 mm
12:50 PM 47.8°F8.8°C 26.9°F-2.8°C 44% 4.0 mph WSW6.4 kmh WSW 12.0 mph19.3 kmh 29.91 in1012.9 mb 0.00 in0.0 mm 0.00 in/hr0.0 mm/hr 0.00 in0.0 mm
12:55 PM 47.7°F8.7°C 26.8°F-2.9°C 44% 4.0 mph SW6.4 kmh SW 16.0 mph25.7 kmh 29.91 in1012.9 mb 0.00 in0.0 mm 0.00 in/hr0.0 mm/hr 0.00 in0.0 mm
01:00 PM 47.9°F8.8°C 26.4°F-3.1°C 43% 7.0 mph W11.3 kmh W 17.0 mph27.4 kmh 29.92 in1013.2 mb 0.00 in0.0 mm 0.00 in/hr0.0 mm/hr 0.00 in0.0 mm
01:05 PM 47.7°F8.7°C 26.8°F-2.9°C 44% 6.0 mph WSW9.7 kmh WSW 16.0 mph25.7 kmh 29.91 in1012.9 mb 0.00 in0.0 mm 0.00 in/hr0.0 mm/hr 0.00 in0.0 mm
01:10 PM 47.2°F8.4°C 28.0°F-2.2°C 47% 6.0 mph NW9.7 kmh NW 12.0 mph19.3 kmh 29.91 in1012.9 mb 0.00 in0.0 mm 0.00 in/hr0.0 mm/hr 0.00 in0.0 mm
01:15 PM 47.3°F8.5°C 29.1°F-1.6°C 49% 5.0 mph NW8.0 kmh NW 11.0 mph17.7 kmh 29.91 in1012.9 mb 0.00 in0.0 mm 0.00 in/hr0.0 mm/hr 0.00 in0.0 mm
01:20 PM 47.2°F8.4°C 28.5°F-1.9°C 48% 4.0 mph W6.4 kmh W 10.0 mph16.1 kmh 29.91 in1012.9 mb 0.00 in0.0 mm 0.00 in/hr0.0 mm/hr 0.00 in0.0 mm
01:25 PM 47.3°F8.5°C 29.1°F-1.6°C 49% 4.0 mph WSW6.4 kmh WSW 12.0 mph19.3 kmh 29.91 in1012.9 mb 0.00 in0.0 mm 0.00 in/hr0.0 mm/hr 0.00 in0.0 mm
01:30 PM 47.8°F8.8°C 29.0°F-1.7°C 48% 8.0 mph WSW12.9 kmh WSW 14.0 mph22.5 kmh 29.91 in1012.9 mb 0.00 in0.0 mm 0.00 in/hr0.0 mm/hr 0.00 in0.0 mm
01:35 PM 48.5°F9.2°C 29.1°F-1.6°C 47% 6.0 mph SW9.7 kmh SW 19.0 mph30.6 kmh 29.91 in1012.9 mb 0.00 in0.0 mm 0.00 in/hr0.0 mm/hr 0.00 in0.0 mm
01:40 PM 48.3°F9.1°C 28.4°F-2.0°C 46% 13.0 mph SW20.9 kmh SW 15.0 mph24.1 kmh 29.91 in1012.9 mb 0.00 in0.0 mm 0.00 in/hr0.0 mm/hr 0.00 in0.0 mm
01:45 PM 48.0°F8.9°C 29.7°F-1.3°C 49% 6.0 mph W9.7 kmh W 19.0 mph30.6 kmh 29.91 in1012.9 mb 0.00 in0.0 mm 0.00 in/hr0.0 mm/hr 0.00 in0.0 mm
01:50 PM 48.1°F8.9°C 28.8°F-1.8°C 47% 6.0 mph W9.7 kmh W 18.0 mph29.0 kmh 29.91 in1012.9 mb 0.00 in0.0 mm 0.00 in/hr0.0 mm/hr 0.00 in0.0 mm
01:55 PM 47.4°F8.6°C 28.7°F-1.8°C 48% 3.0 mph WSW4.8 kmh WSW 16.0 mph25.7 kmh 29.91 in1012.9 mb 0.00 in0.0 mm 0.00 in/hr0.0 mm/hr 0.00 in0.0 mm
02:00 PM 47.3°F8.5°C 28.6°F-1.9°C 48% 6.0 mph SSW9.7 kmh SSW 13.0 mph20.9 kmh 29.90 in1012.5 mb 0.00 in0.0 mm 0.00 in/hr0.0 mm/hr 0.00 in0.0 mm
02:05 PM 48.1°F8.9°C 27.7°F-2.4°C 45% 13.0 mph SW20.9 kmh SW 17.0 mph27.4 kmh 29.90 in1012.5 mb 0.00 in0.0 mm 0.00 in/hr0.0 mm/hr 0.00 in0.0 mm
02:10 PM 48.2°F9.0°C 27.8°F-2.3°C 45% 5.0 mph SSW8.0 kmh SSW 18.0 mph29.0 kmh 29.90 in1012.5 mb 0.00 in0.0 mm 0.00 in/hr0.0 mm/hr 0.00 in0.0 mm
02:15 PM 47.6°F8.7°C 27.8°F-2.3°C 46% 14.0 mph SSW22.5 kmh SSW 18.0 mph29.0 kmh 29.91 in1012.9 mb 0.00 in0.0 mm 0.00 in/hr0.0 mm/hr 0.00 in0.0 mm
02:20 PM 47.0°F8.3°C 27.3°F-2.6°C 46% 8.0 mph SW12.9 kmh SW 18.0 mph29.0 kmh 29.91 in1012.9 mb 0.00 in0.0 mm 0.00 in/hr0.0 mm/hr 0.00 in0.0 mm
02:25 PM 46.9°F8.3°C 28.2°F-2.1°C 48% 8.0 mph W12.9 kmh W 23.0 mph37.0 kmh 29.91 in1012.9 mb 0.00 in0.0 mm 0.00 in/hr0.0 mm/hr 0.00 in0.0 mm
02:30 PM 47.0°F8.3°C 28.8°F-1.8°C 49% 5.0 mph WSW8.0 kmh WSW 12.0 mph19.3 kmh 29.92 in1013.2 mb 0.00 in0.0 mm 0.00 in/hr0.0 mm/hr 0.00 in0.0 mm
02:35 PM 47.6°F8.7°C 28.3°F-2.1°C 47% 4.0 mph WSW6.4 kmh WSW 12.0 mph19.3 kmh 29.91 in1012.9 mb 0.00 in0.0 mm 0.00 in/hr0.0 mm/hr 0.00 in0.0 mm
02:40 PM 48.1°F8.9°C 28.3°F-2.1°C 46% 6.0 mph WSW9.7 kmh WSW 13.0 mph20.9 kmh 29.92 in1013.2 mb 0.00 in0.0 mm 0.00 in/hr0.0 mm/hr 0.00 in0.0 mm
02:45 PM 47.6°F8.7°C 28.3°F-2.1°C 47% 11.0 mph SW17.7 kmh SW 15.0 mph24.1 kmh 29.92 in1013.2 mb 0.00 in0.0 mm 0.00 in/hr0.0 mm/hr 0.00 in0.0 mm
02:50 PM 47.4°F8.6°C 28.1°F-2.2°C 47% 11.0 mph S17.7 kmh S 20.0 mph32.2 kmh 29.91 in1012.9 mb 0.00 in0.0 mm 0.00 in/hr0.0 mm/hr 0.00 in0.0 mm
02:55 PM 47.9°F8.8°C 29.1°F-1.6°C 48% 4.0 mph WSW6.4 kmh WSW 12.0 mph19.3 kmh 29.92 in1013.2 mb 0.00 in0.0 mm 0.00 in/hr0.0 mm/hr 0.00 in0.0 mm
03:00 PM 49.1°F9.5°C 29.2°F-1.6°C 46% 8.0 mph SW12.9 kmh SW 15.0 mph24.1 kmh 29.92 in1013.2 mb 0.00 in0.0 mm 0.00 in/hr0.0 mm/hr 0.00 in0.0 mm
03:05 PM 49.4°F9.7°C 28.9°F-1.7°C 45% 11.0 mph SW17.7 kmh SW 20.0 mph32.2 kmh 29.92 in1013.2 mb 0.00 in0.0 mm 0.00 in/hr0.0 mm/hr 0.00 in0.0 mm
03:10 PM 48.6°F9.2°C 28.2°F-2.1°C 45% 8.0 mph W12.9 kmh W 15.0 mph24.1 kmh 29.93 in1013.5 mb 0.00 in0.0 mm 0.00 in/hr0.0 mm/hr 0.00 in0.0 mm
03:15 PM 47.4°F8.6°C 29.2°F-1.6°C 49% 11.0 mph WNW17.7 kmh WNW 20.0 mph32.2 kmh 29.93 in1013.5 mb 0.00 in0.0 mm 0.00 in/hr0.0 mm/hr 0.00 in0.0 mm
03:20 PM 45.4°F7.4°C 30.1°F-1.1°C 55% 3.0 mph NW4.8 kmh NW 13.0 mph20.9 kmh 29.94 in1013.9 mb 0.00 in0.0 mm 0.00 in/hr0.0 mm/hr 0.00 in0.0 mm
03:25 PM 44.7°F7.1°C 30.8°F-0.7°C 58% 5.0 mph WNW8.0 kmh WNW 10.0 mph16.1 kmh 29.94 in1013.9 mb 0.00 in0.0 mm 0.00 in/hr0.0 mm/hr 0.00 in0.0 mm
03:30 PM 44.8°F7.1°C 30.9°F-0.6°C 58% 3.0 mph NW4.8 kmh NW 7.0 mph11.3 kmh 29.94 in1013.9 mb 0.00 in0.0 mm 0.00 in/hr0.0 mm/hr 0.00 in0.0 mm
03:35 PM 45.2°F7.3°C 31.3°F-0.4°C 58% Calm Calm 4.0 mph6.4 kmh 29.94 in1013.9 mb 0.00 in0.0 mm 0.00 in/hr0.0 mm/hr 0.00 in0.0 mm
03:40 PM 45.5°F7.5°C 31.1°F-0.5°C 57% 1.0 mph NW1.6 kmh NW 8.0 mph12.9 kmh 29.94 in1013.9 mb 0.00 in0.0 mm 0.00 in/hr0.0 mm/hr 0.00 in0.0 mm
03:45 PM 45.6°F7.6°C 31.2°F-0.4°C 57% 8.0 mph W12.9 kmh W 13.0 mph20.9 kmh 29.95 in1014.2 mb 0.00 in0.0 mm 0.00 in/hr0.0 mm/hr 0.00 in0.0 mm
03:50 PM 45.1°F7.3°C 31.6°F-0.2°C 59% 4.0 mph WSW6.4 kmh WSW 15.0 mph24.1 kmh 29.95 in1014.2 mb 0.00 in0.0 mm 0.00 in/hr0.0 mm/hr 0.00 in0.0 mm
03:55 PM 44.0°F6.7°C 33.0°F0.6°C 65% 4.0 mph SW6.4 kmh SW 13.0 mph20.9 kmh 29.95 in1014.2 mb 0.00 in0.0 mm 0.00 in/hr0.0 mm/hr 0.00 in0.0 mm
04:00 PM 43.0°F6.1°C 33.1°F0.6°C 68% 6.0 mph W9.7 kmh W 10.0 mph16.1 kmh 29.95 in1014.2 mb 0.00 in0.0 mm 0.00 in/hr0.0 mm/hr 0.00 in0.0 mm
04:05 PM 42.5°F5.8°C 33.7°F0.9°C 71% 3.0 mph W4.8 kmh W 9.0 mph14.5 kmh 29.96 in1014.6 mb 0.00 in0.0 mm 0.00 in/hr0.0 mm/hr 0.00 in0.0 mm
04:10 PM 42.8°F6.0°C 34.7°F1.5°C 73% 4.0 mph SW6.4 kmh SW 6.0 mph9.7 kmh 29.95 in1014.2 mb 0.00 in0.0 mm 0.00 in/hr0.0 mm/hr 0.00 in0.0 mm
04:15 PM 44.2°F6.8°C 34.6°F1.4°C 69% 6.0 mph WSW9.7 kmh WSW 9.0 mph14.5 kmh 29.95 in1014.2 mb 0.00 in0.0 mm 0.00 in/hr0.0 mm/hr 0.00 in0.0 mm
04:20 PM 45.3°F7.4°C 34.9°F1.6°C 67% 6.0 mph SW9.7 kmh SW 10.0 mph16.1 kmh 29.95 in1014.2 mb 0.00 in0.0 mm 0.00 in/hr0.0 mm/hr 0.00 in0.0 mm
04:25 PM 46.3°F7.9°C 34.4°F1.3°C 63% 7.0 mph WSW11.3 kmh WSW 8.0 mph12.9 kmh 29.95 in1014.2 mb 0.00 in0.0 mm 0.00 in/hr0.0 mm/hr 0.00 in0.0 mm
04:30 PM 46.7°F8.2°C 34.3°F1.3°C 62% 3.0 mph WSW4.8 kmh WSW 8.0 mph12.9 kmh 29.94 in1013.9 mb 0.00 in0.0 mm 0.00 in/hr0.0 mm/hr 0.00 in0.0 mm
04:35 PM 46.9°F8.3°C 33.3°F0.7°C 59% 3.0 mph SSW4.8 kmh SSW 10.0 mph16.1 kmh 29.94 in1013.9 mb 0.00 in0.0 mm 0.00 in/hr0.0 mm/hr 0.00 in0.0 mm
04:40 PM 47.0°F8.3°C 33.8°F1.0°C 60% 2.0 mph SW3.2 kmh SW 12.0 mph19.3 kmh 29.94 in1013.9 mb 0.00 in0.0 mm 0.00 in/hr0.0 mm/hr 0.00 in0.0 mm
04:45 PM 47.1°F8.4°C 33.5°F0.8°C 59% 1.0 mph WSW1.6 kmh WSW 8.0 mph12.9 kmh 29.94 in1013.9 mb 0.00 in0.0 mm 0.00 in/hr0.0 mm/hr 0.00 in0.0 mm
04:50 PM 47.5°F8.6°C 33.4°F0.8°C 58% 6.0 mph SSW9.7 kmh SSW 11.0 mph17.7 kmh 29.94 in1013.9 mb 0.00 in0.0 mm 0.00 in/hr0.0 mm/hr 0.00 in0.0 mm
04:55 PM 47.0°F8.3°C 32.9°F0.5°C 58% 7.0 mph W11.3 kmh W 9.0 mph14.5 kmh 29.94 in1013.9 mb 0.00 in0.0 mm 0.00 in/hr0.0 mm/hr 0.00 in0.0 mm
05:00 PM 46.3°F7.9°C 32.7°F0.4°C 59% 2.0 mph WNW3.2 kmh WNW 8.0 mph12.9 kmh 29.94 in1013.9 mb 0.00 in0.0 mm 0.00 in/hr0.0 mm/hr 0.00 in0.0 mm
05:05 PM 45.5°F7.5°C 32.8°F0.4°C 61% 3.0 mph W4.8 kmh W 7.0 mph11.3 kmh 29.95 in1014.2 mb 0.00 in0.0 mm 0.00 in/hr0.0 mm/hr 0.00 in0.0 mm
05:10 PM 44.9°F7.2°C 33.0°F0.6°C 63% 3.0 mph NW4.8 kmh NW 6.0 mph9.7 kmh 29.95 in1014.2 mb 0.00 in0.0 mm 0.00 in/hr0.0 mm/hr 0.00 in0.0 mm
05:15 PM 44.6°F7.0°C 33.1°F0.6°C 64% 1.0 mph NW1.6 kmh NW 4.0 mph6.4 kmh 29.95 in1014.2 mb 0.00 in0.0 mm 0.00 in/hr0.0 mm/hr 0.00 in0.0 mm
05:20 PM 44.4°F6.9°C 32.9°F0.5°C 64% 1.0 mph NW1.6 kmh NW 3.0 mph4.8 kmh 29.95 in1014.2 mb 0.00 in0.0 mm 0.00 in/hr0.0 mm/hr 0.00 in0.0 mm
05:25 PM 44.4°F6.9°C 33.3°F0.7°C 65% Calm Calm 1.0 mph1.6 kmh 29.95 in1014.2 mb 0.00 in0.0 mm 0.00 in/hr0.0 mm/hr 0.00 in0.0 mm
05:30 PM 44.4°F6.9°C 32.9°F0.5°C 64% 1.0 mph NW1.6 kmh NW 3.0 mph4.8 kmh 29.96 in1014.6 mb 0.00 in0.0 mm 0.00 in/hr0.0 mm/hr 0.00 in0.0 mm
05:35 PM 44.5°F6.9°C 32.6°F0.3°C 63% 1.0 mph NW1.6 kmh NW 2.0 mph3.2 kmh 29.96 in1014.6 mb 0.00 in0.0 mm 0.00 in/hr0.0 mm/hr 0.00 in0.0 mm
05:40 PM 44.7°F7.1°C 32.4°F0.2°C 62% Calm Calm 5.0 mph8.0 kmh 29.96 in1014.6 mb 0.00 in0.0 mm 0.00 in/hr0.0 mm/hr 0.00 in0.0 mm
05:45 PM 44.7°F7.1°C 32.4°F0.2°C 62% 1.0 mph NW1.6 kmh NW 3.0 mph4.8 kmh 29.96 in1014.6 mb 0.00 in0.0 mm 0.00 in/hr0.0 mm/hr 0.00 in0.0 mm
05:50 PM 44.4°F6.9°C 32.6°F0.3°C 63% Calm Calm 2.0 mph3.2 kmh 29.96 in1014.6 mb 0.00 in0.0 mm 0.00 in/hr0.0 mm/hr 0.00 in0.0 mm
05:55 PM 44.2°F6.8°C 32.0°F0.0°C 62% Calm Calm 2.0 mph3.2 kmh 29.96 in1014.6 mb 0.00 in0.0 mm 0.00 in/hr0.0 mm/hr 0.00 in0.0 mm
06:00 PM 43.9°F6.6°C 32.5°F0.3°C 64% Calm Calm 2.0 mph3.2 kmh 29.96 in1014.6 mb 0.00 in0.0 mm 0.00 in/hr0.0 mm/hr 0.00 in0.0 mm
06:05 PM 43.8°F6.6°C 32.0°F0.0°C 63% 4.0 mph NW6.4 kmh NW 4.0 mph6.4 kmh 29.97 in1014.9 mb 0.00 in0.0 mm 0.00 in/hr0.0 mm/hr 0.00 in0.0 mm
06:10 PM 43.7°F6.5°C 30.7°F-0.7°C 60% 1.0 mph WNW1.6 kmh WNW 7.0 mph11.3 kmh 29.97 in1014.9 mb 0.00 in0.0 mm 0.00 in/hr0.0 mm/hr 0.00 in0.0 mm
06:15 PM 43.8°F6.6°C 31.2°F-0.4°C 61% 1.0 mph WNW1.6 kmh WNW 4.0 mph6.4 kmh 29.98 in1015.2 mb 0.00 in0.0 mm 0.00 in/hr0.0 mm/hr 0.00 in0.0 mm
06:20 PM 43.7°F6.5°C 31.9°F-0.1°C 63% Calm Calm 2.0 mph3.2 kmh 29.98 in1015.2 mb 0.00 in0.0 mm 0.00 in/hr0.0 mm/hr 0.00 in0.0 mm
06:25 PM 43.4°F6.3°C 31.2°F-0.4°C 62% 1.0 mph W1.6 kmh W 4.0 mph6.4 kmh 29.98 in1015.2 mb 0.00 in0.0 mm 0.00 in/hr0.0 mm/hr 0.00 in0.0 mm
06:30 PM 43.5°F6.4°C 30.9°F-0.6°C 61% 3.0 mph W4.8 kmh W 6.0 mph9.7 kmh 29.98 in1015.2 mb 0.00 in0.0 mm 0.00 in/hr0.0 mm/hr 0.00 in0.0 mm
06:35 PM 43.5°F6.4°C 30.5°F-0.8°C 60% 3.0 mph WNW4.8 kmh WNW 7.0 mph11.3 kmh 29.98 in1015.2 mb 0.00 in0.0 mm 0.00 in/hr0.0 mm/hr 0.00 in0.0 mm
06:40 PM 43.8°F6.6°C 30.8°F-0.7°C 60% 6.0 mph NW9.7 kmh NW 10.0 mph16.1 kmh 29.99 in1015.6 mb 0.00 in0.0 mm 0.00 in/hr0.0 mm/hr 0.00 in0.0 mm
06:45 PM 43.7°F6.5°C 31.1°F-0.5°C 61% 4.0 mph NW6.4 kmh NW 8.0 mph12.9 kmh 29.99 in1015.6 mb 0.00 in0.0 mm 0.00 in/hr0.0 mm/hr 0.00 in0.0 mm
06:50 PM 43.3°F6.3°C 31.1°F-0.5°C 62% 7.0 mph W11.3 kmh W 9.0 mph14.5 kmh 29.99 in1015.6 mb 0.00 in0.0 mm 0.00 in/hr0.0 mm/hr 0.00 in0.0 mm
06:55 PM 42.7°F5.9°C 31.3°F-0.4°C 64% 8.0 mph W12.9 kmh W 11.0 mph17.7 kmh 29.99 in1015.6 mb 0.00 in0.0 mm 0.00 in/hr0.0 mm/hr 0.00 in0.0 mm
07:00 PM 42.3°F5.7°C 31.3°F-0.4°C 65% 3.0 mph W4.8 kmh W 9.0 mph14.5 kmh 29.99 in1015.6 mb 0.00 in0.0 mm 0.00 in/hr0.0 mm/hr 0.00 in0.0 mm
07:05 PM 42.0°F5.6°C 31.4°F-0.3°C 66% 4.0 mph WSW6.4 kmh WSW 12.0 mph19.3 kmh 29.99 in1015.6 mb 0.00 in0.0 mm 0.00 in/hr0.0 mm/hr 0.00 in0.0 mm
07:10 PM 41.9°F5.5°C 31.7°F-0.2°C 67% 10.0 mph SW16.1 kmh SW 12.0 mph19.3 kmh 29.99 in1015.6 mb 0.00 in0.0 mm 0.00 in/hr0.0 mm/hr 0.00 in0.0 mm
07:15 PM 41.7°F5.4°C 31.5°F-0.3°C 67% 7.0 mph WSW11.3 kmh WSW 12.0 mph19.3 kmh 29.99 in1015.6 mb 0.00 in0.0 mm 0.00 in/hr0.0 mm/hr 0.00 in0.0 mm
07:20 PM 41.5°F5.3°C 31.7°F-0.2°C 68% 9.0 mph WSW14.5 kmh WSW 12.0 mph19.3 kmh 30.00 in1015.9 mb 0.00 in0.0 mm 0.00 in/hr0.0 mm/hr 0.00 in0.0 mm
07:25 PM 41.4°F5.2°C 31.6°F-0.2°C 68% 14.0 mph WSW22.5 kmh WSW 16.0 mph25.7 kmh 29.99 in1015.6 mb 0.00 in0.0 mm 0.00 in/hr0.0 mm/hr 0.00 in0.0 mm
07:30 PM 41.5°F5.3°C 31.7°F-0.2°C 68% 10.0 mph WSW16.1 kmh WSW 14.0 mph22.5 kmh 30.00 in1015.9 mb 0.00 in0.0 mm 0.00 in/hr0.0 mm/hr 0.00 in0.0 mm
07:35 PM 41.7°F5.4°C 31.5°F-0.3°C 67% 11.0 mph WSW17.7 kmh WSW 16.0 mph25.7 kmh 29.99 in1015.6 mb 0.00 in0.0 mm 0.00 in/hr0.0 mm/hr 0.00 in0.0 mm
07:40 PM 41.6°F5.3°C 31.4°F-0.3°C 67% 10.0 mph W16.1 kmh W 15.0 mph24.1 kmh 29.99 in1015.6 mb 0.00 in0.0 mm 0.00 in/hr0.0 mm/hr 0.00 in0.0 mm
07:45 PM 41.6°F5.3°C 31.4°F-0.3°C 67% 11.0 mph WSW17.7 kmh WSW 16.0 mph25.7 kmh 29.99 in1015.6 mb 0.00 in0.0 mm 0.00 in/hr0.0 mm/hr 0.00 in0.0 mm
07:50 PM 41.9°F5.5°C 31.3°F-0.4°C 66% 7.0 mph WSW11.3 kmh WSW 18.0 mph29.0 kmh 29.99 in1015.6 mb 0.00 in0.0 mm 0.00 in/hr0.0 mm/hr 0.00 in0.0 mm
07:55 PM 41.9°F5.5°C 31.3°F-0.4°C 66% 5.0 mph SW8.0 kmh SW 15.0 mph24.1 kmh 30.00 in1015.9 mb 0.00 in0.0 mm 0.00 in/hr0.0 mm/hr 0.00 in0.0 mm
08:00 PM 41.9°F5.5°C 31.3°F-0.4°C 66% 11.0 mph WSW17.7 kmh WSW 14.0 mph22.5 kmh 30.01 in1016.3 mb 0.00 in0.0 mm 0.00 in/hr0.0 mm/hr 0.00 in0.0 mm
08:05 PM 41.9°F5.5°C 31.3°F-0.4°C 66% 7.0 mph SSW11.3 kmh SSW 14.0 mph22.5 kmh 30.01 in1016.3 mb 0.00 in0.0 mm 0.00 in/hr0.0 mm/hr 0.00 in0.0 mm
08:10 PM 42.1°F5.6°C 31.5°F-0.3°C 66% 6.0 mph SW9.7 kmh SW 15.0 mph24.1 kmh 30.01 in1016.3 mb 0.00 in0.0 mm 0.00 in/hr0.0 mm/hr 0.00 in0.0 mm
08:15 PM 42.2°F5.7°C 31.2°F-0.4°C 65% 7.0 mph SW11.3 kmh SW 15.0 mph24.1 kmh 30.00 in1015.9 mb 0.00 in0.0 mm 0.00 in/hr0.0 mm/hr 0.00 in0.0 mm
08:20 PM 42.1°F5.6°C 31.5°F-0.3°C 66% 9.0 mph WSW14.5 kmh WSW 11.0 mph17.7 kmh 30.01 in1016.3 mb 0.00 in0.0 mm 0.00 in/hr0.0 mm/hr 0.00 in0.0 mm
08:25 PM 42.0°F5.6°C 31.1°F-0.5°C 65% 7.0 mph SW11.3 kmh SW 13.0 mph20.9 kmh 30.01 in1016.3 mb 0.00 in0.0 mm 0.00 in/hr0.0 mm/hr 0.00 in0.0 mm
08:30 PM 42.3°F5.7°C 31.0°F-0.6°C 64% 10.0 mph SW16.1 kmh SW 15.0 mph24.1 kmh 30.01 in1016.3 mb 0.00 in0.0 mm 0.00 in/hr0.0 mm/hr 0.00 in0.0 mm
08:35 PM 42.4°F5.8°C 31.0°F-0.6°C 64% 7.0 mph W11.3 kmh W 16.0 mph25.7 kmh 30.01 in1016.3 mb 0.00 in0.0 mm 0.00 in/hr0.0 mm/hr 0.00 in0.0 mm
08:40 PM 42.5°F5.8°C 30.8°F-0.7°C 63% 4.0 mph WSW6.4 kmh WSW 15.0 mph24.1 kmh 30.01 in1016.3 mb 0.00 in0.0 mm 0.00 in/hr0.0 mm/hr 0.00 in0.0 mm
08:45 PM 42.5°F5.8°C 30.8°F-0.7°C 63% 7.0 mph WSW11.3 kmh WSW 14.0 mph22.5 kmh 30.02 in1016.6 mb 0.00 in0.0 mm 0.00 in/hr0.0 mm/hr 0.00 in0.0 mm
08:50 PM 42.6°F5.9°C 30.8°F-0.7°C 63% 6.0 mph W9.7 kmh W 11.0 mph17.7 kmh 30.02 in1016.6 mb 0.00 in0.0 mm 0.00 in/hr0.0 mm/hr 0.00 in0.0 mm
08:55 PM 42.6°F5.9°C 30.5°F-0.8°C 62% 13.0 mph SW20.9 kmh SW 13.0 mph20.9 kmh 30.02 in1016.6 mb 0.00 in0.0 mm 0.00 in/hr0.0 mm/hr 0.00 in0.0 mm
09:00 PM 42.7°F5.9°C 30.5°F-0.8°C 62% 6.0 mph W9.7 kmh W 13.0 mph20.9 kmh 30.02 in1016.6 mb 0.00 in0.0 mm 0.00 in/hr0.0 mm/hr 0.00 in0.0 mm
09:05 PM 42.7°F5.9°C 30.5°F-0.8°C 62% 6.0 mph WSW9.7 kmh WSW 15.0 mph24.1 kmh 30.02 in1016.6 mb 0.00 in0.0 mm 0.00 in/hr0.0 mm/hr 0.00 in0.0 mm
09:10 PM 42.7°F5.9°C 30.5°F-0.8°C 62% 10.0 mph WSW16.1 kmh WSW 14.0 mph22.5 kmh 30.01 in1016.3 mb 0.00 in0.0 mm 0.00 in/hr0.0 mm/hr 0.00 in0.0 mm
09:15 PM 42.6°F5.9°C 30.8°F-0.7°C 63% 10.0 mph WSW16.1 kmh WSW 14.0 mph22.5 kmh 30.02 in1016.6 mb 0.00 in0.0 mm 0.00 in/hr0.0 mm/hr 0.00 in0.0 mm
09:20 PM 42.4°F5.8°C 31.0°F-0.6°C 64% 8.0 mph W12.9 kmh W 13.0 mph20.9 kmh 30.02 in1016.6 mb 0.00 in0.0 mm 0.00 in/hr0.0 mm/hr 0.00 in0.0 mm
09:25 PM 42.3°F5.7°C 30.6°F-0.8°C 63% 8.0 mph SW12.9 kmh SW 15.0 mph24.1 kmh 30.01 in1016.3 mb 0.00 in0.0 mm 0.00 in/hr0.0 mm/hr 0.00 in0.0 mm
09:30 PM 42.5°F5.8°C 30.8°F-0.7°C 63% 5.0 mph SW8.0 kmh SW 13.0 mph20.9 kmh 30.01 in1016.3 mb 0.00 in0.0 mm 0.00 in/hr0.0 mm/hr 0.00 in0.0 mm
09:35 PM 42.4°F5.8°C 30.7°F-0.7°C 63% 3.0 mph WSW4.8 kmh WSW 9.0 mph14.5 kmh 30.02 in1016.6 mb 0.00 in0.0 mm 0.00 in/hr0.0 mm/hr 0.00 in0.0 mm
09:40 PM 42.2°F5.7°C 30.5°F-0.8°C 63% 1.0 mph WSW1.6 kmh WSW 7.0 mph11.3 kmh 30.02 in1016.6 mb 0.00 in0.0 mm 0.00 in/hr0.0 mm/hr 0.00 in0.0 mm
09:45 PM 42.1°F5.6°C 30.4°F-0.9°C 63% 5.0 mph SSW8.0 kmh SSW 11.0 mph17.7 kmh 30.02 in1016.6 mb 0.00 in0.0 mm 0.00 in/hr0.0 mm/hr 0.00 in0.0 mm
09:50 PM 42.0°F5.6°C 29.9°F-1.2°C 62% 2.0 mph W3.2 kmh W 8.0 mph12.9 kmh 30.01 in1016.3 mb 0.00 in0.0 mm 0.00 in/hr0.0 mm/hr 0.00 in0.0 mm
09:55 PM 42.0°F5.6°C 29.9°F-1.2°C 62% 2.0 mph W3.2 kmh W 7.0 mph11.3 kmh 30.01 in1016.3 mb 0.00 in0.0 mm 0.00 in/hr0.0 mm/hr 0.00 in0.0 mm
10:00 PM 41.8°F5.4°C 29.7°F-1.3°C 62% 7.0 mph SW11.3 kmh SW 7.0 mph11.3 kmh 30.01 in1016.3 mb 0.00 in0.0 mm 0.00 in/hr0.0 mm/hr 0.00 in0.0 mm
10:05 PM 41.9°F5.5°C 29.4°F-1.4°C 61% 7.0 mph SW11.3 kmh SW 11.0 mph17.7 kmh 30.01 in1016.3 mb 0.00 in0.0 mm 0.00 in/hr0.0 mm/hr 0.00 in0.0 mm
10:10 PM 42.2°F5.7°C 29.3°F-1.5°C 60% 5.0 mph WSW8.0 kmh WSW 12.0 mph19.3 kmh 30.01 in1016.3 mb 0.00 in0.0 mm 0.00 in/hr0.0 mm/hr 0.00 in0.0 mm
10:15 PM 42.3°F5.7°C 29.0°F-1.7°C 59% 8.0 mph WSW12.9 kmh WSW 13.0 mph20.9 kmh 30.01 in1016.3 mb 0.00 in0.0 mm 0.00 in/hr0.0 mm/hr 0.00 in0.0 mm
10:20 PM 42.5°F5.8°C 28.7°F-1.8°C 58% 11.0 mph SW17.7 kmh SW 15.0 mph24.1 kmh 30.01 in1016.3 mb 0.00 in0.0 mm 0.00 in/hr0.0 mm/hr 0.00 in0.0 mm
10:25 PM 42.7°F5.9°C 28.9°F-1.7°C 58% 6.0 mph SW9.7 kmh SW 14.0 mph22.5 kmh 30.01 in1016.3 mb 0.00 in0.0 mm 0.00 in/hr0.0 mm/hr 0.00 in0.0 mm
10:30 PM 42.7°F5.9°C 28.9°F-1.7°C 58% 3.0 mph W4.8 kmh W 16.0 mph25.7 kmh 30.02 in1016.6 mb 0.00 in0.0 mm 0.00 in/hr0.0 mm/hr 0.00 in0.0 mm
10:35 PM 42.4°F5.8°C 28.6°F-1.9°C 58% 4.0 mph SW6.4 kmh SW 10.0 mph16.1 kmh 30.02 in1016.6 mb 0.00 in0.0 mm 0.00 in/hr0.0 mm/hr 0.00 in0.0 mm
10:40 PM 42.3°F5.7°C 29.0°F-1.7°C 59% 7.0 mph SW11.3 kmh SW 10.0 mph16.1 kmh 30.02 in1016.6 mb 0.00 in0.0 mm 0.00 in/hr0.0 mm/hr 0.00 in0.0 mm
10:45 PM 42.2°F5.7°C 28.9°F-1.7°C 59% 4.0 mph SW6.4 kmh SW 10.0 mph16.1 kmh 30.02 in1016.6 mb 0.00 in0.0 mm 0.00 in/hr0.0 mm/hr 0.00 in0.0 mm
10:50 PM 42.0°F5.6°C 29.1°F-1.6°C 60% 2.0 mph SW3.2 kmh SW 9.0 mph14.5 kmh 30.01 in1016.3 mb 0.00 in0.0 mm 0.00 in/hr0.0 mm/hr 0.00 in0.0 mm
10:55 PM 41.8°F5.4°C 28.9°F-1.7°C 60% 11.0 mph SW17.7 kmh SW 12.0 mph19.3 kmh 30.02 in1016.6 mb 0.00 in0.0 mm 0.00 in/hr0.0 mm/hr 0.00 in0.0 mm
11:00 PM 41.9°F5.5°C 29.4°F-1.4°C 61% 4.0 mph WSW6.4 kmh WSW 13.0 mph20.9 kmh 30.01 in1016.3 mb 0.00 in0.0 mm 0.00 in/hr0.0 mm/hr 0.00 in0.0 mm
11:05 PM 41.9°F5.5°C 29.4°F-1.4°C 61% 15.0 mph WSW24.1 kmh WSW 18.0 mph29.0 kmh 30.01 in1016.3 mb 0.00 in0.0 mm 0.00 in/hr0.0 mm/hr 0.00 in0.0 mm
11:10 PM 42.1°F5.6°C 29.2°F-1.6°C 60% 11.0 mph W17.7 kmh W 16.0 mph25.7 kmh 30.01 in1016.3 mb 0.00 in0.0 mm 0.00 in/hr0.0 mm/hr 0.00 in0.0 mm
11:15 PM 42.1°F5.6°C 28.8°F-1.8°C 59% 11.0 mph SSW17.7 kmh SSW 17.0 mph27.4 kmh 30.01 in1016.3 mb 0.00 in0.0 mm 0.00 in/hr0.0 mm/hr 0.00 in0.0 mm
11:20 PM 42.1°F5.6°C 28.8°F-1.8°C 59% 9.0 mph SSW14.5 kmh SSW 16.0 mph25.7 kmh 30.01 in1016.3 mb 0.00 in0.0 mm 0.00 in/hr0.0 mm/hr 0.00 in0.0 mm
11:25 PM 42.1°F5.6°C 28.8°F-1.8°C 59% 12.0 mph WSW19.3 kmh WSW 15.0 mph24.1 kmh 30.01 in1016.3 mb 0.00 in0.0 mm 0.00 in/hr0.0 mm/hr 0.00 in0.0 mm
11:30 PM 42.0°F5.6°C 27.8°F-2.3°C 57% 8.0 mph SSE12.9 kmh SSE 16.0 mph25.7 kmh 30.00 in1015.9 mb 0.00 in0.0 mm 0.00 in/hr0.0 mm/hr 0.00 in0.0 mm
11:35 PM 42.0°F5.6°C 27.8°F-2.3°C 57% 11.0 mph SW17.7 kmh SW 13.0 mph20.9 kmh 30.00 in1015.9 mb 0.00 in0.0 mm 0.00 in/hr0.0 mm/hr 0.00 in0.0 mm
11:40 PM 42.2°F5.7°C 28.0°F-2.2°C 57% 14.0 mph SW22.5 kmh SW 21.0 mph33.8 kmh 30.01 in1016.3 mb 0.00 in0.0 mm 0.00 in/hr0.0 mm/hr 0.00 in0.0 mm
11:45 PM 42.2°F5.7°C 28.0°F-2.2°C 57% 5.0 mph WSW8.0 kmh WSW 14.0 mph22.5 kmh 30.00 in1015.9 mb 0.00 in0.0 mm 0.00 in/hr0.0 mm/hr 0.00 in0.0 mm
11:50 PM 42.0°F5.6°C 27.8°F-2.3°C 57% 15.0 mph SW24.1 kmh SW 21.0 mph33.8 kmh 30.00 in1015.9 mb 0.00 in0.0 mm 0.00 in/hr0.0 mm/hr 0.00 in0.0 mm
11:55 PM 42.1°F5.6°C 27.9°F-2.3°C 57% 5.0 mph SW8.0 kmh SW 18.0 mph29.0 kmh 30.00 in1015.9 mb 0.00 in0.0 mm 0.00 in/hr0.0 mm/hr 0.00 in0.0 mm